createdAt,value
2022-11-10T00:02:23.287Z,28.70
2022-11-10T00:05:11.015Z,28.33
2022-11-10T00:07:58.235Z,30.80
2022-11-10T00:11:00.188Z,30.30
2022-11-10T00:14:07.183Z,28.30
2022-11-10T00:17:04.771Z,31.13
2022-11-10T00:19:51.603Z,31.50
2022-11-10T00:22:39.849Z,30.87
2022-11-10T00:25:27.142Z,29.70
2022-11-10T00:28:15.067Z,27.80
2022-11-10T00:31:07.219Z,30.40
2022-11-10T00:33:53.813Z,28.43
2022-11-10T00:36:40.929Z,29.87
2022-11-10T00:39:27.988Z,28.40
2022-11-10T00:42:14.528Z,31.30
2022-11-10T00:45:03.266Z,31.60
2022-11-10T00:47:49.859Z,30.23
2022-11-10T00:50:36.618Z,29.93
2022-11-10T00:53:23.959Z,28.00
2022-11-10T00:56:10.881Z,30.50
2022-11-10T00:58:57.699Z,30.67
2022-11-10T01:01:45.843Z,30.83
2022-11-10T01:04:32.478Z,31.87
2022-11-10T01:07:19.643Z,32.80
2022-11-10T01:10:07.248Z,31.53
2022-11-10T01:12:53.947Z,33.60
2022-11-10T01:15:40.959Z,36.93
2022-11-10T01:18:28.915Z,33.80
2022-11-10T01:21:15.490Z,33.40
2022-11-10T01:24:02.504Z,32.83
2022-11-10T01:26:49.851Z,33.47
2022-11-10T01:29:36.732Z,30.70
2022-11-10T01:32:23.520Z,32.60
2022-11-10T01:35:11.887Z,31.83
2022-11-10T01:37:58.798Z,32.33
2022-11-10T01:40:45.738Z,28.40
2022-11-10T01:43:33.799Z,26.63
2022-11-10T01:46:20.541Z,26.27
2022-11-10T01:49:07.700Z,24.43
2022-11-10T01:51:59.708Z,25.27
2022-11-10T01:54:48.832Z,24.03
2022-11-10T01:57:36.381Z,24.30
2022-11-10T02:00:24.017Z,25.77
2022-11-10T02:03:14.938Z,24.50
2022-11-10T02:06:02.420Z,24.70
2022-11-10T02:08:51.609Z,22.13
2022-11-10T02:11:39.652Z,24.30
2022-11-10T02:14:27.485Z,25.50
2022-11-10T02:17:14.917Z,24.00
2022-11-10T02:20:04.894Z,23.03
2022-11-10T02:22:53.156Z,23.40
2022-11-10T02:25:40.256Z,23.30
2022-11-10T02:28:28.395Z,23.27
2022-11-10T02:31:15.257Z,23.80
2022-11-10T02:34:02.101Z,22.73
2022-11-10T02:36:48.729Z,22.00
2022-11-10T02:39:36.818Z,23.30
2022-11-10T02:42:23.729Z,23.17
2022-11-10T02:45:11.777Z,21.50
2022-11-10T02:47:58.356Z,22.37
2022-11-10T02:50:45.606Z,22.13
2022-11-10T02:53:32.498Z,22.70
2022-11-10T02:56:20.689Z,22.33
2022-11-10T02:59:07.589Z,23.20
2022-11-10T03:01:54.712Z,24.60
2022-11-10T03:04:41.349Z,24.73
2022-11-10T03:07:28.268Z,23.93
2022-11-10T03:10:14.849Z,24.60
2022-11-10T03:13:03.888Z,23.33
2022-11-10T03:15:50.576Z,27.53
2022-11-10T03:18:37.438Z,25.83
2022-11-10T03:21:24.168Z,28.40
2022-11-10T03:24:10.941Z,26.53
2022-11-10T03:26:57.507Z,26.80
2022-11-10T03:29:45.476Z,25.67
2022-11-10T03:32:32.239Z,25.20
2022-11-10T03:35:19.238Z,24.23
2022-11-10T03:38:05.802Z,23.53
2022-11-10T03:43:59.277Z,24.30
2022-11-10T03:46:51.423Z,25.20
2022-11-10T03:49:38.760Z,24.47
2022-11-10T03:52:25.598Z,24.27
2022-11-10T03:55:14.096Z,22.40
2022-11-10T03:58:03.310Z,24.97
2022-11-10T04:00:49.826Z,22.40
2022-11-10T04:03:38.067Z,24.13
2022-11-10T04:06:42.687Z,23.03
2022-11-10T04:09:29.121Z,23.20
2022-11-10T04:12:33.366Z,26.73
2022-11-10T04:15:38.265Z,26.07
2022-11-10T04:18:29.817Z,25.50
2022-11-10T04:21:18.227Z,26.03
2022-11-10T04:24:04.978Z,25.13
2022-11-10T04:26:52.079Z,26.13
2022-11-10T04:29:38.909Z,26.30
2022-11-10T04:32:25.391Z,26.93
2022-11-10T04:35:12.038Z,25.50
2022-11-10T04:38:01.542Z,25.17
2022-11-10T04:40:48.360Z,24.27
2022-11-10T04:43:35.183Z,26.83
2022-11-10T04:46:25.246Z,26.40
2022-11-10T04:49:12.877Z,27.80
2022-11-10T04:51:59.893Z,28.33
2022-11-10T04:54:48.085Z,29.27
2022-11-10T04:57:34.924Z,30.40
2022-11-10T05:00:21.987Z,35.13
2022-11-10T05:03:12.802Z,31.90
2022-11-10T05:06:00.006Z,30.03
2022-11-10T05:08:47.484Z,29.13
2022-11-10T05:11:35.329Z,30.60
2022-11-10T05:14:22.029Z,28.80
2022-11-10T05:17:08.659Z,27.00
2022-11-10T05:19:55.360Z,27.00
2022-11-10T05:22:48.863Z,27.70
2022-11-10T05:25:37.947Z,31.63
2022-11-10T05:28:26.047Z,30.00
2022-11-10T05:31:13.659Z,34.77
2022-11-10T05:34:00.323Z,36.47
2022-11-10T05:36:46.960Z,37.27
2022-11-10T05:39:33.451Z,40.00
2022-11-10T05:42:20.008Z,35.80
2022-11-10T05:45:08.587Z,36.90
2022-11-10T05:47:55.963Z,34.40
2022-11-10T05:50:44.465Z,34.30
2022-11-10T05:53:31.422Z,33.90
2022-11-10T05:56:18.188Z,33.37
2022-11-10T05:59:04.736Z,33.97
2022-11-10T06:01:52.659Z,32.57
2022-11-10T06:04:39.450Z,29.70
2022-11-10T06:07:26.210Z,32.33
2022-11-10T06:10:12.878Z,31.00
2022-11-10T06:12:59.539Z,31.20
2022-11-10T06:15:50.157Z,30.70
2022-11-10T06:18:38.525Z,34.13
2022-11-10T06:21:25.386Z,30.17
2022-11-10T06:24:12.570Z,31.87
2022-11-10T06:26:59.087Z,30.13
2022-11-10T06:29:46.288Z,32.10
2022-11-10T06:32:35.299Z,32.40
2022-11-10T06:35:25.191Z,31.63
2022-11-10T06:38:12.879Z,33.70
2022-11-10T06:40:59.477Z,32.03
2022-11-10T06:43:46.368Z,32.43
2022-11-10T06:46:35.928Z,35.30
2022-11-10T06:49:26.784Z,34.60
2022-11-10T06:52:14.707Z,34.83
2022-11-10T06:55:01.459Z,34.37
2022-11-10T06:57:48.408Z,32.87
2022-11-10T07:00:35.015Z,33.83
2022-11-10T07:03:22.245Z,34.80
2022-11-10T07:06:09.771Z,33.27
2022-11-10T07:08:57.509Z,36.87
2022-11-10T07:11:44.664Z,35.53
2022-11-10T07:14:31.261Z,36.77
2022-11-10T07:17:17.860Z,33.97
2022-11-10T07:20:04.514Z,32.73
2022-11-10T07:22:51.352Z,36.40
2022-11-10T07:25:39.442Z,35.13
2022-11-10T07:28:28.494Z,31.93
2022-11-10T07:31:15.211Z,31.90
2022-11-10T07:34:01.863Z,32.80
2022-11-10T07:36:48.677Z,31.73
2022-11-10T07:39:35.321Z,32.63
2022-11-10T07:42:23.537Z,30.13
2022-11-10T07:45:10.954Z,30.70
2022-11-10T07:48:00.845Z,30.03
2022-11-10T07:50:47.966Z,30.30
2022-11-10T07:53:34.724Z,30.93
2022-11-10T07:56:21.991Z,29.17
2022-11-10T07:59:10.190Z,29.37
2022-11-10T08:01:57.078Z,30.83
2022-11-10T08:04:43.876Z,30.60
2022-11-10T08:07:31.097Z,28.23
2022-11-10T08:10:18.703Z,30.30
2022-11-10T08:13:07.820Z,28.70
2022-11-10T08:15:57.278Z,30.43
2022-11-10T08:18:44.057Z,32.30
2022-11-10T08:21:30.619Z,31.73
2022-11-10T08:24:17.355Z,31.30
2022-11-10T08:27:04.149Z,33.70
2022-11-10T08:29:50.810Z,33.83
2022-11-10T08:32:38.949Z,33.73
2022-11-10T08:35:26.990Z,33.63
2022-11-10T08:38:15.375Z,34.67
2022-11-10T08:41:01.905Z,33.33
2022-11-10T08:43:48.967Z,35.13
2022-11-10T08:46:35.608Z,35.23
2022-11-10T08:49:23.758Z,32.77
2022-11-10T08:52:11.283Z,34.23
2022-11-10T08:54:58.262Z,35.33
2022-11-10T08:57:44.852Z,34.27
2022-11-10T09:00:31.981Z,33.60
2022-11-10T09:03:21.120Z,32.97
2022-11-10T09:06:09.673Z,33.77
2022-11-10T09:08:56.289Z,30.67
2022-11-10T09:11:43.118Z,31.73
2022-11-10T09:14:29.890Z,31.87
2022-11-10T09:17:16.675Z,32.07
2022-11-10T09:20:03.800Z,31.37
2022-11-10T09:22:52.382Z,30.23
2022-11-10T09:25:39.313Z,31.83
2022-11-10T09:28:26.765Z,31.13
2022-11-10T09:31:13.725Z,29.70
2022-11-10T09:34:00.456Z,29.73
2022-11-10T09:36:47.091Z,31.30
2022-11-10T09:39:35.260Z,30.53
2022-11-10T09:42:32.896Z,30.07
2022-11-10T09:45:25.590Z,31.50
2022-11-10T09:48:20.147Z,29.80
2022-11-10T09:51:10.824Z,31.87
2022-11-10T09:54:00.124Z,32.50
2022-11-10T09:56:48.247Z,30.77
2022-11-10T09:59:36.018Z,31.83
2022-11-10T10:02:30.771Z,29.93
2022-11-10T10:05:39.540Z,30.80
2022-11-10T10:08:39.617Z,29.50
2022-11-10T10:11:45.943Z,29.93
2022-11-10T10:14:51.002Z,30.87
2022-11-10T10:17:43.557Z,27.90
2022-11-10T10:20:39.507Z,29.97
2022-11-10T10:23:54.361Z,29.20
2022-11-10T10:26:42.344Z,27.93
2022-11-10T10:29:37.473Z,29.03
2022-11-10T10:32:28.216Z,29.47
2022-11-10T10:35:15.978Z,30.13
2022-11-10T10:38:04.399Z,29.87
2022-11-10T10:40:53.228Z,28.17
2022-11-10T10:43:41.402Z,30.43
2022-11-10T10:46:34.515Z,31.97
2022-11-10T10:49:29.236Z,30.27
2022-11-10T10:52:20.879Z,31.07
2022-11-10T10:55:09.784Z,31.13
2022-11-10T10:58:01.489Z,31.90
2022-11-10T11:00:50.251Z,30.83
2022-11-10T11:03:43.469Z,32.20
2022-11-10T11:06:33.620Z,32.50
2022-11-10T11:09:24.672Z,31.53
2022-11-10T11:12:28.509Z,34.33
2022-11-10T11:15:23.191Z,34.60
2022-11-10T11:18:15.947Z,36.37
2022-11-10T11:21:09.707Z,36.17
2022-11-10T11:24:16.121Z,37.73
2022-11-10T11:27:06.285Z,34.87
2022-11-10T11:30:05.679Z,36.00
2022-11-10T11:33:29.289Z,33.13
2022-11-10T11:36:24.943Z,33.97
2022-11-10T11:39:28.328Z,35.00
2022-11-10T11:42:24.238Z,35.77
2022-11-10T11:45:18.557Z,33.13
2022-11-10T11:48:44.419Z,33.50
2022-11-10T11:51:40.406Z,33.20
2022-11-10T11:54:42.702Z,33.07
2022-11-10T11:57:40.534Z,34.37
2022-11-10T12:00:29.822Z,34.30
2022-11-10T12:03:33.259Z,32.73
2022-11-10T12:06:41.945Z,32.57
2022-11-10T12:09:36.850Z,33.47
2022-11-10T12:12:43.759Z,32.87
2022-11-10T12:15:41.658Z,33.03
2022-11-10T12:18:34.527Z,36.37
2022-11-10T12:21:25.935Z,34.37
2022-11-10T12:24:42.027Z,35.13
2022-11-10T12:27:33.288Z,34.27
2022-11-10T12:30:20.497Z,32.67
2022-11-10T12:33:17.859Z,35.70
2022-11-10T12:36:08.516Z,36.20
2022-11-10T12:39:02.563Z,34.73
2022-11-10T12:41:55.724Z,34.07
2022-11-10T12:44:57.166Z,34.00
2022-11-10T12:47:46.340Z,32.27
2022-11-10T12:50:50.298Z,31.63
2022-11-10T12:53:40.173Z,31.27
2022-11-10T12:56:31.866Z,33.40
2022-11-10T12:59:32.704Z,31.47
2022-11-10T13:02:27.077Z,32.23
2022-11-10T13:05:27.278Z,31.30
2022-11-10T13:08:21.253Z,31.63
2022-11-10T13:11:23.223Z,30.47
2022-11-10T13:14:23.849Z,30.83
2022-11-10T13:17:28.519Z,30.33
2022-11-10T13:20:53.037Z,30.13
2022-11-10T13:24:12.738Z,29.63
2022-11-10T13:27:00.919Z,28.70
2022-11-10T13:29:59.042Z,28.13
2022-11-10T13:32:47.165Z,29.77
2022-11-10T13:35:55.301Z,28.63
2022-11-10T13:38:44.441Z,27.30
2022-11-10T13:41:35.349Z,27.20
2022-11-10T13:44:24.538Z,27.67
2022-11-10T13:47:40.426Z,29.27
2022-11-10T13:50:50.933Z,27.87
2022-11-10T13:53:51.365Z,28.43
2022-11-10T13:57:20.064Z,28.57
2022-11-10T14:00:25.706Z,29.10
2022-11-10T14:03:55.117Z,26.90
2022-11-10T14:06:47.847Z,27.77
2022-11-10T14:09:39.898Z,26.60
2022-11-10T14:12:32.948Z,27.07
2022-11-10T14:15:23.846Z,28.07
2022-11-10T14:18:19.688Z,28.60
2022-11-10T14:21:08.191Z,27.63
2022-11-10T14:24:00.128Z,28.50
2022-11-10T14:26:51.971Z,28.40
2022-11-10T14:29:40.647Z,28.53
2022-11-10T14:32:28.133Z,31.13
2022-11-10T14:35:24.283Z,28.90
2022-11-10T14:38:21.185Z,29.37
2022-11-10T14:41:17.677Z,28.53
2022-11-10T14:44:06.539Z,29.93
2022-11-10T14:46:53.674Z,29.30
2022-11-10T14:49:40.266Z,28.87
2022-11-10T14:52:27.150Z,29.70
2022-11-10T14:55:18.595Z,28.63
2022-11-10T14:58:13.542Z,29.80
2022-11-10T15:01:01.305Z,29.13
2022-11-10T15:03:48.308Z,31.40
2022-11-10T15:06:35.733Z,29.57
2022-11-10T15:09:28.125Z,46.97
2022-11-10T15:12:24.537Z,66.67
2022-11-10T15:15:23.510Z,82.17
2022-11-10T15:18:26.041Z,62.97
2022-11-10T15:21:13.971Z,51.93
2022-11-10T15:24:03.629Z,46.13
2022-11-10T15:26:50.293Z,44.47
2022-11-10T15:29:37.980Z,41.07
2022-11-10T15:32:33.087Z,46.67
2022-11-10T15:35:29.877Z,49.03
2022-11-10T15:38:37.439Z,46.80
2022-11-10T15:41:27.700Z,47.67
2022-11-10T15:44:19.941Z,43.07
2022-11-10T15:47:07.808Z,39.60
2022-11-10T15:49:56.099Z,36.43
2022-11-10T15:52:43.011Z,32.13
2022-11-10T15:55:31.720Z,36.43
2022-11-10T15:58:20.988Z,33.60
2022-11-10T16:01:10.502Z,31.77
2022-11-10T16:03:57.691Z,30.70
2022-11-10T16:06:48.380Z,30.30
2022-11-10T16:09:35.379Z,30.03
2022-11-10T16:12:23.888Z,31.13
2022-11-10T16:15:17.927Z,28.80
2022-11-10T16:18:04.855Z,29.10
2022-11-10T16:20:52.676Z,28.80
2022-11-10T16:23:40.631Z,30.27
2022-11-10T16:26:27.994Z,29.93
2022-11-10T16:29:16.370Z,29.37
2022-11-10T16:32:03.126Z,30.20
2022-11-10T16:34:49.628Z,30.33
2022-11-10T16:37:36.233Z,29.40
2022-11-10T16:40:25.548Z,30.00
2022-11-10T16:43:16.734Z,29.07
2022-11-10T16:46:05.813Z,30.27
2022-11-10T16:48:54.419Z,30.70
2022-11-10T16:51:48.337Z,30.90
2022-11-10T16:54:35.830Z,30.33
2022-11-10T16:57:23.876Z,31.40
2022-11-10T17:00:11.811Z,29.30
2022-11-10T17:03:03.588Z,28.00
2022-11-10T17:05:50.527Z,27.50
2022-11-10T17:08:37.223Z,28.03
2022-11-10T17:11:24.153Z,25.03
2022-11-10T17:14:14.006Z,27.73
2022-11-10T17:17:00.820Z,25.73
2022-11-10T17:19:48.659Z,27.17
2022-11-10T17:22:36.506Z,25.33
2022-11-10T17:25:27.354Z,25.87
2022-11-10T17:28:15.888Z,25.60
2022-11-10T17:31:04.284Z,27.43
2022-11-10T17:33:50.939Z,27.17
2022-11-10T17:36:37.657Z,29.77
2022-11-10T17:39:24.606Z,26.93
2022-11-10T17:42:14.028Z,28.30
2022-11-10T17:45:00.528Z,28.60
2022-11-10T17:47:49.112Z,29.40
2022-11-10T17:50:37.807Z,29.97
2022-11-10T17:53:26.329Z,30.47
2022-11-10T17:56:13.198Z,31.03
2022-11-10T17:58:59.910Z,32.10
2022-11-10T18:01:46.563Z,30.60
2022-11-10T18:04:34.952Z,30.73
2022-11-10T18:07:21.546Z,30.17
2022-11-10T18:10:11.186Z,30.13
2022-11-10T18:12:58.389Z,31.53
2022-11-10T18:15:45.970Z,29.33
2022-11-10T18:18:33.043Z,32.53
2022-11-10T18:21:21.231Z,31.93
2022-11-10T18:24:08.300Z,29.43
2022-11-10T18:26:54.962Z,31.70
2022-11-10T18:29:41.902Z,31.03
2022-11-10T18:32:28.457Z,30.93
2022-11-10T18:35:15.525Z,31.87
2022-11-10T18:38:03.503Z,33.07
2022-11-10T18:40:50.017Z,32.77
2022-11-10T18:43:37.957Z,29.63
2022-11-10T18:46:24.561Z,29.17
2022-11-10T18:49:11.166Z,27.50
2022-11-10T18:51:58.050Z,26.80
2022-11-10T18:54:45.987Z,25.37
2022-11-10T18:57:32.598Z,24.57
2022-11-10T19:00:19.281Z,24.90
2022-11-10T19:03:05.926Z,26.87
2022-11-10T19:05:58.316Z,26.43
2022-11-10T19:08:45.749Z,27.53
2022-11-10T19:11:35.199Z,25.67
2022-11-10T19:14:21.689Z,25.30
2022-11-10T19:17:08.627Z,25.00
2022-11-10T19:19:56.792Z,25.93
2022-11-10T19:22:44.139Z,29.60
2022-11-10T19:25:30.811Z,28.73
2022-11-10T19:28:18.789Z,29.30
2022-11-10T19:31:06.750Z,27.93
2022-11-10T19:33:56.126Z,30.17
2022-11-10T19:36:43.016Z,28.90
2022-11-10T19:39:29.706Z,29.60
2022-11-10T19:42:16.417Z,27.37
2022-11-10T19:45:04.629Z,26.87
2022-11-10T19:47:51.337Z,27.57
2022-11-10T19:50:37.931Z,27.77
2022-11-10T19:53:24.887Z,26.37
2022-11-10T19:56:17.248Z,26.87
2022-11-10T19:59:04.399Z,27.33
2022-11-10T20:01:52.557Z,25.10
2022-11-10T20:04:59.712Z,27.53
2022-11-10T20:08:07.547Z,27.47
2022-11-10T20:11:00.360Z,27.27
2022-11-10T20:13:51.961Z,29.67
2022-11-10T20:16:41.227Z,26.30
2022-11-10T20:19:29.110Z,25.47
2022-11-10T20:22:16.033Z,25.27
2022-11-10T20:25:03.016Z,24.07
2022-11-10T20:27:49.870Z,24.00
2022-11-10T20:30:38.582Z,23.50
2022-11-10T20:33:25.911Z,22.97
2022-11-10T20:36:20.127Z,24.37
2022-11-10T20:39:07.831Z,23.97
2022-11-10T20:41:54.656Z,24.60
2022-11-10T20:44:41.658Z,23.40
2022-11-10T20:47:29.793Z,23.97
2022-11-10T20:50:21.696Z,23.53
2022-11-10T20:53:12.581Z,24.93
2022-11-10T20:56:02.117Z,24.57
2022-11-10T20:58:52.322Z,23.80
2022-11-10T21:01:39.323Z,23.07
2022-11-10T21:04:26.119Z,23.97
2022-11-10T21:07:13.181Z,23.20
2022-11-10T21:10:01.857Z,22.70
2022-11-10T21:12:51.129Z,22.33
2022-11-10T21:15:39.962Z,23.43
2022-11-10T21:18:29.242Z,21.20
2022-11-10T21:21:21.795Z,21.60
2022-11-10T21:24:09.752Z,26.23
2022-11-10T21:26:58.740Z,23.83
2022-11-10T21:29:45.888Z,25.53
2022-11-10T21:32:32.388Z,24.23
2022-11-10T21:35:19.453Z,25.00
2022-11-10T21:38:06.787Z,26.90
2022-11-10T21:40:53.695Z,27.40
2022-11-10T21:43:42.486Z,25.30
2022-11-10T21:46:28.995Z,24.10
2022-11-10T21:49:15.546Z,25.37
2022-11-10T21:52:02.234Z,23.37
2022-11-10T21:54:48.934Z,23.53
2022-11-10T21:57:35.799Z,24.77
2022-11-10T22:00:38.875Z,24.00
2022-11-10T22:03:25.718Z,22.80
2022-11-10T22:06:14.326Z,22.53
2022-11-10T22:09:01.084Z,24.50
2022-11-10T22:12:05.195Z,23.33
2022-11-10T22:15:09.718Z,22.17
2022-11-10T22:18:15.455Z,22.23
2022-11-10T22:21:02.132Z,23.97
2022-11-10T22:24:06.167Z,24.60
2022-11-10T22:26:53.737Z,22.10
2022-11-10T22:29:40.726Z,21.87
2022-11-10T22:32:27.336Z,23.07
2022-11-10T22:35:35.355Z,23.60
2022-11-10T22:38:22.374Z,21.87
2022-11-10T22:41:31.026Z,22.07
2022-11-10T22:44:19.451Z,22.47
2022-11-10T22:47:07.987Z,23.87
2022-11-10T22:49:54.914Z,24.40
2022-11-10T22:52:43.315Z,24.30
2022-11-10T22:55:30.388Z,24.03
2022-11-10T22:58:16.998Z,25.83
2022-11-10T23:01:07.771Z,24.70
2022-11-10T23:03:55.246Z,26.43
2022-11-10T23:06:42.357Z,27.60
2022-11-10T23:09:30.212Z,26.87
2022-11-10T23:12:18.367Z,25.80
2022-11-10T23:15:05.409Z,27.40
2022-11-10T23:17:51.966Z,29.13
2022-11-10T23:20:38.796Z,29.00
2022-11-10T23:23:25.884Z,31.33
2022-11-10T23:26:16.516Z,29.57
2022-11-10T23:29:03.288Z,30.07
2022-11-10T23:31:50.289Z,29.37
2022-11-10T23:34:36.964Z,30.57
2022-11-10T23:37:23.774Z,30.83
2022-11-10T23:40:12.026Z,31.60
2022-11-10T23:43:00.057Z,30.07
2022-11-10T23:46:05.810Z,27.60
2022-11-10T23:48:53.508Z,26.67
2022-11-10T23:51:40.467Z,28.33
2022-11-10T23:54:27.330Z,25.23
2022-11-10T23:57:14.244Z,26.60
